createdAt,value
2016-11-23T00:00:08.119Z,6.48
2016-11-23T00:01:07.573Z,6.54
2016-11-23T00:02:08.558Z,6.65
2016-11-23T00:03:07.070Z,6.52
2016-11-23T00:04:07.381Z,6.60
2016-11-23T00:05:07.907Z,6.48
2016-11-23T00:06:08.498Z,6.52
2016-11-23T00:07:08.201Z,6.56
2016-11-23T00:08:08.040Z,6.23
2016-11-23T00:09:07.620Z,6.30
2016-11-23T00:10:07.265Z,6.09
2016-11-23T00:11:07.868Z,6.29
2016-11-23T00:12:07.618Z,6.30
2016-11-23T00:13:07.147Z,6.21
2016-11-23T00:14:07.639Z,6.26
2016-11-23T00:15:07.126Z,6.53
2016-11-23T00:16:07.701Z,6.53
2016-11-23T00:17:07.251Z,6.54
2016-11-23T00:18:07.684Z,6.42
2016-11-23T00:19:07.201Z,6.44
2016-11-23T00:20:07.678Z,6.42
2016-11-23T00:21:07.270Z,6.26
2016-11-23T00:22:08.165Z,6.28
2016-11-23T00:23:07.710Z,6.18
2016-11-23T00:24:07.216Z,6.24
2016-11-23T00:25:07.912Z,6.32
2016-11-23T00:26:07.466Z,6.35
2016-11-23T00:27:07.941Z,6.32
2016-11-23T00:28:07.658Z,6.47
2016-11-23T00:29:07.146Z,6.48
2016-11-23T00:30:07.653Z,6.39
2016-11-23T00:31:07.216Z,6.15
2016-11-23T00:32:07.967Z,6.12
2016-11-23T00:33:07.624Z,6.34
2016-11-23T00:34:07.384Z,6.35
2016-11-23T00:35:07.848Z,6.42
2016-11-23T00:36:07.373Z,6.55
2016-11-23T00:37:08.210Z,6.53
2016-11-23T00:38:07.715Z,6.57
2016-11-23T00:39:07.299Z,6.44
2016-11-23T00:40:07.869Z,6.58
2016-11-23T00:41:07.478Z,6.60
2016-11-23T00:42:08.198Z,6.57
2016-11-23T00:43:07.949Z,6.65
2016-11-23T00:44:07.630Z,6.60
2016-11-23T00:45:07.324Z,6.54
2016-11-23T00:46:07.946Z,6.29
2016-11-23T00:47:07.991Z,6.39
2016-11-23T00:48:07.516Z,6.47
2016-11-23T00:49:08.001Z,6.09
2016-11-23T00:50:07.477Z,6.05
2016-11-23T00:51:08.238Z,6.25
2016-11-23T00:52:08.252Z,6.15
2016-11-23T00:53:07.205Z,5.98
2016-11-23T00:54:07.703Z,5.98
2016-11-23T00:55:07.189Z,5.85
2016-11-23T00:56:08.046Z,6.05
2016-11-23T00:57:07.647Z,6.17
2016-11-23T00:58:07.281Z,6.30
2016-11-23T00:59:07.920Z,6.21
2016-11-23T01:00:07.781Z,6.21
2016-11-23T01:01:07.232Z,6.34
2016-11-23T01:02:07.709Z,6.37
2016-11-23T01:03:07.253Z,6.35
2016-11-23T01:04:08.151Z,6.37
2016-11-23T01:05:07.704Z,6.25
2016-11-23T01:06:07.217Z,6.13
2016-11-23T01:07:07.757Z,6.08
2016-11-23T01:08:07.302Z,6.23
2016-11-23T01:09:07.926Z,6.20
2016-11-23T01:10:07.737Z,6.30
2016-11-23T01:11:07.219Z,6.42
2016-11-23T01:12:07.727Z,6.29
2016-11-23T01:13:07.296Z,6.31
2016-11-23T01:14:07.832Z,6.27
2016-11-23T01:15:07.342Z,5.97
2016-11-23T01:16:07.840Z,6.15
2016-11-23T01:17:07.585Z,6.25
2016-11-23T01:18:07.280Z,6.16
2016-11-23T01:19:07.790Z,5.99
2016-11-23T01:20:07.290Z,6.06
2016-11-23T01:21:07.803Z,6.07
2016-11-23T01:22:07.382Z,6.11
2016-11-23T01:23:07.917Z,6.07
2016-11-23T01:24:07.410Z,6.08
2016-11-23T01:25:07.933Z,6.21
2016-11-23T01:26:07.406Z,5.89
2016-11-23T01:27:08.050Z,5.70
2016-11-23T01:28:07.799Z,5.63
2016-11-23T01:29:07.390Z,5.81
2016-11-23T01:30:08.192Z,5.73
2016-11-23T01:31:07.737Z,5.79
2016-11-23T01:32:08.170Z,5.50
2016-11-23T01:33:07.674Z,5.83
2016-11-23T01:34:07.945Z,5.96
2016-11-23T01:35:07.806Z,6.09
2016-11-23T01:36:07.307Z,5.75
2016-11-23T01:37:07.890Z,5.78
2016-11-23T01:38:07.498Z,5.66
2016-11-23T01:39:08.037Z,5.90
2016-11-23T01:40:07.526Z,5.98
2016-11-23T01:41:08.082Z,5.78
2016-11-23T01:42:07.747Z,5.94
2016-11-23T01:43:07.367Z,5.95
2016-11-23T01:44:08.053Z,5.99
2016-11-23T01:45:07.530Z,6.01
2016-11-23T01:46:07.979Z,6.12
2016-11-23T01:47:07.887Z,6.31
2016-11-23T01:48:08.626Z,6.34
2016-11-23T01:49:08.347Z,6.17
2016-11-23T01:50:07.118Z,5.91
2016-11-23T01:51:07.616Z,5.98
2016-11-23T01:52:07.282Z,6.14
2016-11-23T01:53:07.970Z,6.24
2016-11-23T01:54:07.553Z,6.23
2016-11-23T01:55:08.129Z,6.31
2016-11-23T01:56:07.621Z,6.32
2016-11-23T01:57:07.106Z,6.18
2016-11-23T01:58:07.784Z,6.09
2016-11-23T01:59:07.239Z,6.17
2016-11-23T02:00:07.851Z,6.14
2016-11-23T02:01:07.511Z,6.07
2016-11-23T02:02:08.103Z,6.20
2016-11-23T02:03:07.937Z,6.09
2016-11-23T02:04:07.673Z,6.15
2016-11-23T02:05:07.198Z,5.89
2016-11-23T02:06:07.686Z,5.94
2016-11-23T02:07:07.229Z,5.83
2016-11-23T02:08:07.850Z,5.75
2016-11-23T02:09:07.306Z,5.89
2016-11-23T02:10:07.952Z,5.98
2016-11-23T02:11:07.446Z,5.93
2016-11-23T02:12:08.032Z,5.91
2016-11-23T02:13:07.877Z,5.86
2016-11-23T02:14:07.329Z,5.99
2016-11-23T02:15:07.890Z,5.91
2016-11-23T02:16:07.349Z,5.89
2016-11-23T02:17:07.951Z,5.93
2016-11-23T02:18:08.019Z,5.98
2016-11-23T02:19:07.241Z,5.87
2016-11-23T02:20:07.714Z,5.65
2016-11-23T02:21:07.227Z,5.74
2016-11-23T02:22:08.019Z,5.63
2016-11-23T02:23:07.637Z,5.66
2016-11-23T02:24:07.225Z,5.72
2016-11-23T02:25:07.948Z,5.79
2016-11-23T02:26:07.430Z,5.80
2016-11-23T02:27:07.928Z,5.86
2016-11-23T02:28:07.613Z,5.84
2016-11-23T02:29:07.228Z,5.87
2016-11-23T02:30:07.761Z,5.68
2016-11-23T02:31:07.746Z,5.75
2016-11-23T02:32:07.430Z,5.82
2016-11-23T02:33:08.035Z,5.81
2016-11-23T02:34:07.514Z,5.98
2016-11-23T02:35:07.417Z,6.00
2016-11-23T02:36:07.923Z,5.55
2016-11-23T02:37:07.601Z,5.72
2016-11-23T02:38:07.336Z,5.91
2016-11-23T02:39:07.788Z,5.90
2016-11-23T02:40:07.658Z,5.67
2016-11-23T02:41:07.139Z,5.67
2016-11-23T02:42:07.747Z,5.68
2016-11-23T02:43:07.487Z,5.79
2016-11-23T02:44:08.145Z,5.69
2016-11-23T02:45:07.654Z,5.74
2016-11-23T02:46:07.147Z,5.66
2016-11-23T02:47:07.693Z,5.71
2016-11-23T02:48:07.317Z,5.25
2016-11-23T02:49:08.105Z,5.55
2016-11-23T02:50:07.816Z,5.41
2016-11-23T02:51:07.402Z,5.54
2016-11-23T02:52:08.291Z,5.44
2016-11-23T02:53:08.271Z,5.48
2016-11-23T02:54:07.698Z,5.45
2016-11-23T02:55:07.281Z,5.64
2016-11-23T02:56:07.937Z,5.58
2016-11-23T02:57:07.418Z,5.70
2016-11-23T02:58:08.194Z,5.62
2016-11-23T02:59:07.686Z,5.75
2016-11-23T03:00:07.255Z,5.50
2016-11-23T03:01:07.767Z,5.64
2016-11-23T03:02:07.257Z,5.32
2016-11-23T03:03:08.027Z,5.32
2016-11-23T03:04:07.826Z,5.25
2016-11-23T03:05:07.310Z,5.31
2016-11-23T03:06:07.899Z,5.54
2016-11-23T03:07:07.730Z,5.59
2016-11-23T03:08:07.521Z,5.61
2016-11-23T03:09:08.631Z,5.76
2016-11-23T03:10:07.304Z,5.90
2016-11-23T03:11:07.869Z,5.85
2016-11-23T03:12:07.508Z,5.49
2016-11-23T03:13:08.455Z,5.44
2016-11-23T03:14:07.937Z,5.46
2016-11-23T03:15:07.458Z,5.69
2016-11-23T03:16:08.140Z,5.41
2016-11-23T03:17:07.864Z,5.60
2016-11-23T03:18:07.521Z,5.57
2016-11-23T03:19:08.136Z,5.39
2016-11-23T03:20:07.687Z,5.43
2016-11-23T03:21:07.267Z,5.27
2016-11-23T03:22:07.841Z,5.15
2016-11-23T03:23:07.405Z,5.25
2016-11-23T03:24:08.174Z,5.28
2016-11-23T03:25:07.840Z,5.40
2016-11-23T03:26:07.626Z,5.45
2016-11-23T03:27:07.129Z,5.36
2016-11-23T03:28:07.367Z,5.40
2016-11-23T03:29:08.015Z,5.33
2016-11-23T03:30:07.550Z,5.46
2016-11-23T03:31:08.108Z,5.46
2016-11-23T03:32:07.866Z,5.64
2016-11-23T03:33:07.454Z,5.63
2016-11-23T03:34:07.979Z,5.70
2016-11-23T03:35:07.785Z,5.64
2016-11-23T03:36:07.306Z,5.52
2016-11-23T03:37:07.291Z,5.65
2016-11-23T03:38:08.089Z,5.50
2016-11-23T03:39:07.517Z,5.42
2016-11-23T03:40:07.663Z,5.44
2016-11-23T03:41:07.202Z,5.64
2016-11-23T03:42:07.735Z,5.33
2016-11-23T03:43:07.217Z,5.39
2016-11-23T03:44:07.804Z,5.39
2016-11-23T03:45:07.382Z,5.26
2016-11-23T03:46:07.877Z,5.43
2016-11-23T03:47:07.417Z,5.40
2016-11-23T03:48:08.274Z,5.12
2016-11-23T03:49:07.718Z,5.29
2016-11-23T03:50:07.369Z,5.42
2016-11-23T03:51:07.484Z,5.13
2016-11-23T03:52:08.046Z,5.18
2016-11-23T03:53:07.624Z,5.02
2016-11-23T03:54:07.128Z,5.01
2016-11-23T03:55:07.647Z,5.21
2016-11-23T03:56:07.290Z,5.26
2016-11-23T03:57:08.038Z,5.24
2016-11-23T03:58:07.929Z,5.40
2016-11-23T03:59:07.521Z,5.20
2016-11-23T04:00:07.524Z,5.20
2016-11-23T04:01:08.074Z,4.93
2016-11-23T04:02:07.557Z,4.94
2016-11-23T04:03:07.310Z,5.01
2016-11-23T04:04:07.775Z,5.29
2016-11-23T04:05:07.293Z,5.52
2016-11-23T04:06:07.778Z,5.69
2016-11-23T04:07:07.617Z,5.53
2016-11-23T04:08:07.647Z,5.48
2016-11-23T04:09:07.242Z,5.62
2016-11-23T04:10:07.766Z,5.64
2016-11-23T04:11:07.214Z,5.64
2016-11-23T04:12:07.738Z,5.68
2016-11-23T04:13:07.298Z,5.53
2016-11-23T04:14:07.813Z,5.47
2016-11-23T04:15:07.379Z,5.37
2016-11-23T04:16:07.868Z,5.13
2016-11-23T04:17:07.456Z,5.12
2016-11-23T04:18:07.992Z,5.20
2016-11-23T04:19:07.468Z,5.15
2016-11-23T04:20:08.078Z,5.32
2016-11-23T04:21:07.590Z,5.35
2016-11-23T04:22:07.278Z,5.13
2016-11-23T04:23:08.105Z,5.38
2016-11-23T04:24:07.848Z,5.34
2016-11-23T04:25:07.299Z,5.02
2016-11-23T04:26:07.766Z,5.20
2016-11-23T04:27:07.509Z,5.31
2016-11-23T04:28:08.224Z,5.33
2016-11-23T04:29:07.782Z,5.14
2016-11-23T04:30:07.319Z,5.26
2016-11-23T04:31:07.904Z,5.35
2016-11-23T04:32:07.450Z,5.41
2016-11-23T04:33:07.974Z,5.21
2016-11-23T04:34:07.500Z,5.32
2016-11-23T04:35:07.641Z,5.16
2016-11-23T04:36:07.173Z,4.98
2016-11-23T04:37:07.821Z,5.40
2016-11-23T04:38:07.299Z,5.45
2016-11-23T04:39:08.117Z,5.55
2016-11-23T04:40:07.586Z,5.36
2016-11-23T04:41:07.151Z,5.36
2016-11-23T04:42:07.618Z,5.57
2016-11-23T04:43:07.032Z,5.35
2016-11-23T04:44:07.577Z,5.32
2016-11-23T04:45:08.252Z,5.42
2016-11-23T04:46:07.788Z,5.50
2016-11-23T04:47:07.334Z,5.44
2016-11-23T04:48:07.520Z,5.43
2016-11-23T04:49:07.783Z,5.23
2016-11-23T04:50:07.262Z,5.23
2016-11-23T04:51:07.938Z,5.37
2016-11-23T04:52:07.492Z,5.34
2016-11-23T04:53:07.998Z,5.53
2016-11-23T04:54:07.522Z,5.50
2016-11-23T04:55:08.400Z,5.29
2016-11-23T04:56:08.409Z,5.42
2016-11-23T04:57:08.019Z,5.36
2016-11-23T04:58:07.854Z,5.43
2016-11-23T04:59:07.503Z,5.22
2016-11-23T05:00:07.658Z,5.29
2016-11-23T05:01:07.154Z,5.30
2016-11-23T05:02:07.980Z,5.38
2016-11-23T05:03:07.580Z,5.54
2016-11-23T05:04:08.082Z,5.47
2016-11-23T05:05:07.684Z,5.37
2016-11-23T05:06:07.311Z,5.33
2016-11-23T05:07:07.848Z,5.29
2016-11-23T05:08:07.390Z,5.25
2016-11-23T05:09:07.928Z,5.17
2016-11-23T05:10:07.440Z,5.15
2016-11-23T05:11:07.931Z,5.28
2016-11-23T05:12:07.665Z,5.08
2016-11-23T05:13:07.242Z,5.17
2016-11-23T05:14:07.787Z,5.28
2016-11-23T05:15:07.499Z,5.16
2016-11-23T05:16:08.461Z,4.98
2016-11-23T05:17:08.230Z,4.80
2016-11-23T05:18:08.044Z,4.88
2016-11-23T05:19:07.937Z,4.99
2016-11-23T05:20:07.510Z,4.77
2016-11-23T05:21:08.047Z,4.72
2016-11-23T05:22:07.784Z,4.67
2016-11-23T05:23:07.418Z,4.84
2016-11-23T05:24:07.995Z,5.01
2016-11-23T05:25:10.021Z,5.05
2016-11-23T05:26:08.033Z,4.97
2016-11-23T05:27:07.502Z,5.06
2016-11-23T05:28:08.287Z,4.82
2016-11-23T05:29:07.791Z,4.83
2016-11-23T05:30:07.485Z,5.07
2016-11-23T05:31:07.967Z,4.92
2016-11-23T05:32:07.443Z,4.97
2016-11-23T05:33:07.957Z,5.08
2016-11-23T05:34:08.265Z,5.22
2016-11-23T05:35:07.807Z,5.29
2016-11-23T05:36:07.632Z,5.12
2016-11-23T05:37:07.400Z,5.24
2016-11-23T05:38:07.872Z,5.29
2016-11-23T05:39:07.508Z,5.13
2016-11-23T05:40:08.022Z,4.80
2016-11-23T05:41:07.601Z,4.80
2016-11-23T05:42:07.108Z,4.86
2016-11-23T05:43:07.641Z,4.90
2016-11-23T05:44:07.471Z,5.17
2016-11-23T05:45:08.358Z,5.07
2016-11-23T05:46:07.820Z,5.08
2016-11-23T05:47:07.780Z,4.89
2016-11-23T05:48:07.255Z,5.07
2016-11-23T05:49:07.820Z,5.10
2016-11-23T05:50:07.662Z,5.18
2016-11-23T05:51:07.225Z,5.23
2016-11-23T05:52:08.398Z,5.28
2016-11-23T05:53:07.916Z,5.11
2016-11-23T05:54:07.735Z,5.05
2016-11-23T05:55:07.303Z,5.07
2016-11-23T05:56:08.028Z,5.05
2016-11-23T05:57:07.910Z,5.00
2016-11-23T05:58:07.595Z,5.11
2016-11-23T05:59:07.173Z,5.21
2016-11-23T06:00:07.872Z,4.96
2016-11-23T06:01:07.323Z,4.80
2016-11-23T06:02:07.363Z,4.91
2016-11-23T06:03:07.887Z,4.95
2016-11-23T06:04:07.681Z,4.81
2016-11-23T06:05:07.155Z,4.77
2016-11-23T06:06:07.927Z,4.87
2016-11-23T06:07:07.569Z,4.84
2016-11-23T06:08:08.130Z,4.85
2016-11-23T06:09:07.369Z,4.87
2016-11-23T06:10:07.836Z,4.75
2016-11-23T06:11:07.422Z,4.96
2016-11-23T06:12:07.929Z,5.06
2016-11-23T06:13:07.425Z,4.92
2016-11-23T06:14:08.050Z,4.85
2016-11-23T06:15:07.559Z,5.05
2016-11-23T06:16:08.060Z,5.07
2016-11-23T06:17:08.162Z,4.91
2016-11-23T06:18:07.682Z,4.79
2016-11-23T06:19:07.268Z,4.87
2016-11-23T06:20:07.945Z,4.88
2016-11-23T06:21:07.969Z,4.79
2016-11-23T06:22:08.095Z,4.82
2016-11-23T06:23:07.605Z,4.89
2016-11-23T06:24:07.231Z,4.59
2016-11-23T06:25:07.701Z,4.41
2016-11-23T06:26:07.303Z,4.60
2016-11-23T06:27:07.859Z,4.75
2016-11-23T06:28:08.333Z,4.58
2016-11-23T06:29:07.901Z,4.66
2016-11-23T06:30:07.329Z,4.62
2016-11-23T06:31:07.867Z,4.75
2016-11-23T06:32:07.700Z,4.80
2016-11-23T06:33:07.275Z,4.56
2016-11-23T06:34:07.845Z,4.52
2016-11-23T06:35:07.377Z,4.46
2016-11-23T06:36:07.880Z,4.36
2016-11-23T06:37:07.420Z,4.63
2016-11-23T06:38:07.883Z,4.54
2016-11-23T06:39:08.142Z,4.71
2016-11-23T06:40:07.291Z,4.75
2016-11-23T06:41:07.838Z,4.91
2016-11-23T06:42:07.526Z,4.87
2016-11-23T06:43:08.188Z,4.90
2016-11-23T06:44:07.811Z,4.97
2016-11-23T06:45:07.166Z,4.91
2016-11-23T06:46:07.738Z,4.97
2016-11-23T06:47:07.332Z,5.13
2016-11-23T06:48:07.886Z,5.13
2016-11-23T06:49:07.539Z,5.03
2016-11-23T06:50:07.883Z,5.16
2016-11-23T06:51:07.379Z,4.97
2016-11-23T06:52:07.954Z,5.02
2016-11-23T06:53:07.797Z,4.89
2016-11-23T06:54:07.330Z,4.92
2016-11-23T06:55:08.157Z,5.01
2016-11-23T06:56:07.614Z,5.07
2016-11-23T06:57:07.114Z,4.99
2016-11-23T06:58:07.798Z,4.98
2016-11-23T06:59:07.392Z,4.97
2016-11-23T07:00:07.932Z,5.07
2016-11-23T07:01:07.602Z,5.17
2016-11-23T07:02:07.256Z,5.14
2016-11-23T07:03:07.947Z,5.21
2016-11-23T07:04:07.502Z,5.23
2016-11-23T07:05:08.372Z,5.14
2016-11-23T07:06:08.217Z,5.10
2016-11-23T07:07:07.788Z,5.18
2016-11-23T07:08:07.376Z,5.24
2016-11-23T07:09:08.174Z,5.22
2016-11-23T07:10:07.775Z,5.19
2016-11-23T07:11:07.411Z,5.15
2016-11-23T07:12:07.116Z,5.10
2016-11-23T07:13:07.693Z,5.18
2016-11-23T07:14:07.283Z,5.21
2016-11-23T07:15:08.171Z,5.34
2016-11-23T07:16:07.609Z,5.32
2016-11-23T07:17:07.236Z,5.34
2016-11-23T07:18:07.812Z,5.24
2016-11-23T07:19:07.374Z,5.31
2016-11-23T07:20:07.915Z,5.30
2016-11-23T07:21:07.591Z,5.52
2016-11-23T07:22:08.099Z,5.51
2016-11-23T07:23:07.718Z,5.62
2016-11-23T07:24:07.331Z,5.60
2016-11-23T07:25:07.797Z,5.72
2016-11-23T07:26:07.433Z,5.54
2016-11-23T07:27:08.051Z,5.78
2016-11-23T07:28:07.667Z,5.77
2016-11-23T07:29:07.997Z,5.52
2016-11-23T07:30:07.607Z,5.61
2016-11-23T07:31:07.160Z,5.65
2016-11-23T07:32:07.662Z,5.66
2016-11-23T07:33:07.163Z,5.61
2016-11-23T07:34:07.676Z,5.70
2016-11-23T07:35:07.492Z,5.29
2016-11-23T07:36:08.241Z,5.19
2016-11-23T07:37:07.729Z,5.05
2016-11-23T07:38:07.370Z,5.25
2016-11-23T07:39:07.919Z,5.02
2016-11-23T07:40:07.410Z,5.26
2016-11-23T07:41:07.918Z,5.29
2016-11-23T07:42:07.422Z,5.29
2016-11-23T07:43:07.880Z,5.49
2016-11-23T07:44:07.630Z,5.52
2016-11-23T07:45:08.246Z,5.57
2016-11-23T07:46:07.785Z,5.71
2016-11-23T07:47:07.455Z,5.82
2016-11-23T07:48:07.977Z,5.96
2016-11-23T07:49:08.088Z,6.12
2016-11-23T07:50:07.945Z,5.98
2016-11-23T07:51:07.738Z,6.21
2016-11-23T07:52:08.511Z,6.22
2016-11-23T07:53:08.043Z,6.30
2016-11-23T07:54:08.016Z,6.45
2016-11-23T07:55:07.512Z,6.40
2016-11-23T07:56:08.007Z,6.37
2016-11-23T07:57:07.567Z,6.54
2016-11-23T07:58:08.275Z,6.42
2016-11-23T07:59:07.799Z,6.53
2016-11-23T08:00:07.583Z,6.41
2016-11-23T08:01:08.109Z,6.52
2016-11-23T08:02:07.560Z,6.43
2016-11-23T08:03:08.109Z,6.49
2016-11-23T08:04:08.097Z,6.68
2016-11-23T08:05:07.675Z,6.71
2016-11-23T08:06:07.226Z,6.79
2016-11-23T08:07:08.698Z,6.71
2016-11-23T08:08:07.229Z,6.71
2016-11-23T08:09:07.893Z,6.77
2016-11-23T08:10:07.632Z,6.76
2016-11-23T08:11:07.147Z,6.70
2016-11-23T08:12:07.725Z,6.75
2016-11-23T08:13:07.313Z,6.94
2016-11-23T08:14:07.970Z,7.01
2016-11-23T08:15:07.455Z,7.01
2016-11-23T08:16:07.991Z,7.01
2016-11-23T08:17:07.841Z,7.07
2016-11-23T08:18:07.488Z,7.06
2016-11-23T08:19:08.079Z,6.97
2016-11-23T08:20:07.560Z,7.04
2016-11-23T08:21:08.090Z,7.07
2016-11-23T08:22:08.615Z,7.09
2016-11-23T08:23:07.441Z,7.18
2016-11-23T08:24:08.232Z,7.15
2016-11-23T08:25:07.777Z,7.24
2016-11-23T08:26:07.240Z,7.30
2016-11-23T08:27:07.710Z,7.40
2016-11-23T08:28:07.451Z,7.51
2016-11-23T08:29:08.400Z,7.62
2016-11-23T08:30:08.002Z,7.59
2016-11-23T08:31:08.865Z,7.65
2016-11-23T08:32:07.335Z,7.60
2016-11-23T08:33:07.913Z,7.60
2016-11-23T08:34:07.574Z,7.65
2016-11-23T08:35:08.180Z,7.75
2016-11-23T08:36:07.701Z,7.75
2016-11-23T08:37:07.259Z,7.77
2016-11-23T08:38:07.898Z,7.77
2016-11-23T08:39:07.433Z,7.74
2016-11-23T08:40:08.011Z,7.69
2016-11-23T08:41:07.146Z,7.82
2016-11-23T08:42:07.644Z,7.93
2016-11-23T08:43:07.275Z,7.98
2016-11-23T08:44:07.731Z,7.86
2016-11-23T08:45:07.364Z,7.94
2016-11-23T08:46:07.856Z,8.10
2016-11-23T08:47:07.525Z,8.16
2016-11-23T08:48:08.307Z,8.19
2016-11-23T08:49:08.041Z,8.26
2016-11-23T08:50:07.792Z,8.25
2016-11-23T08:51:07.277Z,8.37
2016-11-23T08:52:08.747Z,8.47
2016-11-23T08:53:07.326Z,8.50
2016-11-23T08:54:07.860Z,8.58
2016-11-23T08:55:07.406Z,8.55
2016-11-23T08:56:07.923Z,8.69
2016-11-23T08:57:07.418Z,8.79
2016-11-23T08:58:08.238Z,8.91
2016-11-23T08:59:07.804Z,8.92
2016-11-23T09:00:07.305Z,8.99
2016-11-23T09:01:07.467Z,9.05
2016-11-23T09:02:07.351Z,8.94
2016-11-23T09:03:07.966Z,8.96
2016-11-23T09:04:07.508Z,8.93
2016-11-23T09:05:07.978Z,9.04
2016-11-23T09:06:07.477Z,9.00
2016-11-23T09:07:09.066Z,9.07
2016-11-23T09:08:07.580Z,9.10
2016-11-23T09:09:08.166Z,9.23
2016-11-23T09:10:08.027Z,9.34
2016-11-23T09:11:07.599Z,9.38
2016-11-23T09:12:07.423Z,9.44
2016-11-23T09:13:07.912Z,9.38
2016-11-23T09:14:07.508Z,9.50
2016-11-23T09:15:08.100Z,9.38
2016-11-23T09:16:07.609Z,9.31
2016-11-23T09:17:07.346Z,9.30
2016-11-23T09:18:07.864Z,9.45
2016-11-23T09:19:07.376Z,9.44
2016-11-23T09:20:07.998Z,9.60
2016-11-23T09:21:07.896Z,9.53
2016-11-23T09:22:07.737Z,9.55
2016-11-23T09:23:07.275Z,9.64
2016-11-23T09:24:07.849Z,9.78
2016-11-23T09:25:07.588Z,9.84
2016-11-23T09:26:07.177Z,9.81
2016-11-23T09:27:07.709Z,9.70
2016-11-23T09:28:08.044Z,9.78
2016-11-23T09:29:07.529Z,9.74
2016-11-23T09:30:08.025Z,9.74
2016-11-23T09:31:07.588Z,9.83
2016-11-23T09:32:07.217Z,9.78
2016-11-23T09:33:07.758Z,9.85
2016-11-23T09:34:07.251Z,9.77
2016-11-23T09:35:07.779Z,9.85
2016-11-23T09:36:07.621Z,9.95
2016-11-23T09:37:07.654Z,9.92
2016-11-23T09:38:07.230Z,10.00
2016-11-23T09:39:07.812Z,10.08
2016-11-23T09:40:07.317Z,10.17
2016-11-23T09:41:07.859Z,10.23
2016-11-23T09:42:07.424Z,10.18
2016-11-23T09:43:07.948Z,10.20
2016-11-23T09:44:07.718Z,10.21
2016-11-23T09:45:07.245Z,10.24
2016-11-23T09:46:07.876Z,10.31
2016-11-23T09:47:07.470Z,10.33
2016-11-23T09:48:07.977Z,10.33
2016-11-23T09:49:07.475Z,10.39
2016-11-23T09:50:08.216Z,10.46
2016-11-23T09:51:07.741Z,10.48
2016-11-23T09:52:07.499Z,10.56
2016-11-23T09:53:08.007Z,10.60
2016-11-23T09:54:07.844Z,10.61
2016-11-23T09:55:07.340Z,10.57
2016-11-23T09:56:07.788Z,10.54
2016-11-23T09:57:07.853Z,10.66
2016-11-23T09:58:07.527Z,10.75
2016-11-23T09:59:08.223Z,10.69
2016-11-23T10:00:07.697Z,10.72
2016-11-23T10:01:07.892Z,10.74
2016-11-23T10:02:07.344Z,10.79
2016-11-23T10:03:07.910Z,10.84
2016-11-23T10:04:07.384Z,10.89
2016-11-23T10:05:07.908Z,10.85
2016-11-23T10:06:07.784Z,10.80
2016-11-23T10:07:07.699Z,10.87
2016-11-23T10:08:07.298Z,10.92
2016-11-23T10:09:08.059Z,10.92
2016-11-23T10:10:07.513Z,10.89
2016-11-23T10:11:08.159Z,10.96
2016-11-23T10:12:07.811Z,10.98
2016-11-23T10:13:07.329Z,11.05
2016-11-23T10:14:07.888Z,11.09
2016-11-23T10:15:07.441Z,11.06
2016-11-23T10:16:08.253Z,11.15
2016-11-23T10:17:07.904Z,11.15
2016-11-23T10:18:07.481Z,11.14
2016-11-23T10:19:08.099Z,11.14
2016-11-23T10:20:07.582Z,11.22
2016-11-23T10:21:08.159Z,11.25
2016-11-23T10:22:07.788Z,11.17
2016-11-23T10:23:07.366Z,11.23
2016-11-23T10:24:08.215Z,11.18
2016-11-23T10:25:07.728Z,11.20
2016-11-23T10:26:07.222Z,11.20
2016-11-23T10:27:07.836Z,11.21
2016-11-23T10:28:07.579Z,11.26
2016-11-23T10:29:07.132Z,11.34
2016-11-23T10:30:07.755Z,11.24
2016-11-23T10:31:07.234Z,11.34
2016-11-23T10:32:07.824Z,11.31
2016-11-23T10:33:07.334Z,11.35
2016-11-23T10:34:07.572Z,11.35
2016-11-23T10:35:07.586Z,11.41
2016-11-23T10:36:07.272Z,11.44
2016-11-23T10:37:08.554Z,11.39
2016-11-23T10:38:08.262Z,11.41
2016-11-23T10:39:07.809Z,11.41
2016-11-23T10:40:07.416Z,11.41
2016-11-23T10:41:07.386Z,11.39
2016-11-23T10:42:07.956Z,11.35
2016-11-23T10:43:07.597Z,11.33
2016-11-23T10:44:07.428Z,11.27
2016-11-23T10:45:07.895Z,11.33
2016-11-23T10:46:07.165Z,11.37
2016-11-23T10:47:07.751Z,11.33
2016-11-23T10:48:07.276Z,11.32
2016-11-23T10:49:08.283Z,11.36
2016-11-23T10:50:07.372Z,11.35
2016-11-23T10:51:07.846Z,11.31
2016-11-23T10:52:07.916Z,11.35
2016-11-23T10:53:07.493Z,11.31
2016-11-23T10:54:08.016Z,11.37
2016-11-23T10:55:07.546Z,11.37
2016-11-23T10:56:08.029Z,11.43
2016-11-23T10:57:07.508Z,11.39
2016-11-23T10:58:08.347Z,11.40
2016-11-23T10:59:07.843Z,11.39
2016-11-23T11:00:07.535Z,11.44
2016-11-23T11:01:08.057Z,11.47
2016-11-23T11:02:07.854Z,11.48
2016-11-23T11:03:07.488Z,11.47
2016-11-23T11:04:08.041Z,11.47
2016-11-23T11:05:07.647Z,11.48
2016-11-23T11:06:07.189Z,11.50
2016-11-23T11:07:08.442Z,11.50
2016-11-23T11:08:08.247Z,11.56
2016-11-23T11:09:08.259Z,11.56
2016-11-23T11:10:07.687Z,11.57
2016-11-23T11:11:07.925Z,11.70
2016-11-23T11:12:07.430Z,11.73
2016-11-23T11:13:07.896Z,11.70
2016-11-23T11:14:07.536Z,11.73
2016-11-23T11:15:08.089Z,11.85
2016-11-23T11:16:07.772Z,11.93
2016-11-23T11:17:07.547Z,11.99
2016-11-23T11:18:08.041Z,12.08
2016-11-23T11:19:07.705Z,12.16
2016-11-23T11:20:07.235Z,12.13
2016-11-23T11:21:07.886Z,12.16
2016-11-23T11:22:08.239Z,12.12
2016-11-23T11:23:07.922Z,12.13
2016-11-23T11:24:07.444Z,12.13
2016-11-23T11:25:08.130Z,12.23
2016-11-23T11:26:07.660Z,12.29
2016-11-23T11:27:07.316Z,12.32
2016-11-23T11:28:08.017Z,12.37
2016-11-23T11:29:07.707Z,12.44
2016-11-23T11:30:07.540Z,12.48
2016-11-23T11:31:08.107Z,12.52
2016-11-23T11:32:07.851Z,12.52
2016-11-23T11:33:07.482Z,12.49
2016-11-23T11:34:07.748Z,12.44
2016-11-23T11:35:07.275Z,12.50
2016-11-23T11:36:07.775Z,12.46
2016-11-23T11:37:07.745Z,12.52
2016-11-23T11:38:07.483Z,12.44
2016-11-23T11:39:08.048Z,12.40
2016-11-23T11:40:07.870Z,12.43
2016-11-23T11:41:07.422Z,12.48
2016-11-23T11:42:07.979Z,12.49
2016-11-23T11:43:07.466Z,12.46
2016-11-23T11:44:07.734Z,12.49
2016-11-23T11:45:07.340Z,12.43
2016-11-23T11:46:07.886Z,12.42
2016-11-23T11:47:07.995Z,12.49
2016-11-23T11:48:07.544Z,12.57
2016-11-23T11:49:08.209Z,12.58
2016-11-23T11:50:07.713Z,12.66
2016-11-23T11:51:07.295Z,12.66
2016-11-23T11:52:08.868Z,12.58
2016-11-23T11:53:07.426Z,12.59
2016-11-23T11:54:08.345Z,12.54
2016-11-23T11:55:07.910Z,12.50
2016-11-23T11:56:07.580Z,12.51
2016-11-23T11:57:07.442Z,12.50
2016-11-23T11:58:08.118Z,12.46
2016-11-23T11:59:07.645Z,12.48
2016-11-23T12:00:07.124Z,12.48
2016-11-23T12:01:07.646Z,12.45
2016-11-23T12:02:07.272Z,12.44
2016-11-23T12:03:07.771Z,12.47
2016-11-23T12:04:07.353Z,12.51
2016-11-23T12:05:07.904Z,12.44
2016-11-23T12:06:07.448Z,12.47
2016-11-23T12:07:07.998Z,12.44
2016-11-23T12:08:07.594Z,12.50
2016-11-23T12:09:07.162Z,12.47
2016-11-23T12:10:07.816Z,12.49
2016-11-23T12:11:07.325Z,12.45
2016-11-23T12:12:07.956Z,12.49
2016-11-23T12:13:07.546Z,12.52
2016-11-23T12:14:08.088Z,12.50
2016-11-23T12:15:07.644Z,12.48
2016-11-23T12:16:07.147Z,12.50
2016-11-23T12:17:07.916Z,12.49
2016-11-23T12:18:07.471Z,12.56
2016-11-23T12:19:07.993Z,12.62
2016-11-23T12:20:07.971Z,12.63
2016-11-23T12:21:07.430Z,12.61
2016-11-23T12:22:08.222Z,12.58
2016-11-23T12:23:07.827Z,12.59
2016-11-23T12:24:07.956Z,12.59
2016-11-23T12:25:07.445Z,12.57
2016-11-23T12:26:07.960Z,12.55
2016-11-23T12:27:07.600Z,12.52
2016-11-23T12:28:07.311Z,12.56
2016-11-23T12:29:07.825Z,12.63
2016-11-23T12:30:07.465Z,12.69
2016-11-23T12:31:07.897Z,12.75
2016-11-23T12:32:07.402Z,12.69
2016-11-23T12:33:08.060Z,12.69
2016-11-23T12:34:07.587Z,12.76
2016-11-23T12:35:07.243Z,12.78
2016-11-23T12:36:07.968Z,12.79
2016-11-23T12:37:07.556Z,12.83
2016-11-23T12:38:07.103Z,12.81
2016-11-23T12:39:07.595Z,12.92
2016-11-23T12:40:07.158Z,12.97
2016-11-23T12:41:07.877Z,13.00
2016-11-23T12:42:07.505Z,13.00
2016-11-23T12:43:08.161Z,13.00
2016-11-23T12:44:07.653Z,13.02
2016-11-23T12:45:07.292Z,13.06
2016-11-23T12:46:07.846Z,13.04
2016-11-23T12:47:07.504Z,13.09
2016-11-23T12:48:08.071Z,13.11
2016-11-23T12:49:07.611Z,13.09
2016-11-23T12:50:07.337Z,12.99
2016-11-23T12:51:07.945Z,13.07
2016-11-23T12:52:07.476Z,13.02
2016-11-23T12:53:08.201Z,13.01
2016-11-23T12:54:07.536Z,13.04
2016-11-23T12:55:07.141Z,13.11
2016-11-23T12:56:07.806Z,13.13
2016-11-23T12:57:07.403Z,13.11
2016-11-23T12:58:08.010Z,13.08
2016-11-23T12:59:07.824Z,13.08
2016-11-23T13:00:07.517Z,13.10
2016-11-23T13:01:08.252Z,13.15
2016-11-23T13:02:07.813Z,13.14
2016-11-23T13:03:07.346Z,13.15
2016-11-23T13:04:07.952Z,13.20
2016-11-23T13:05:07.448Z,13.10
2016-11-23T13:06:07.944Z,13.13
2016-11-23T13:07:07.171Z,13.16
2016-11-23T13:08:07.851Z,13.18
2016-11-23T13:09:07.638Z,13.16
2016-11-23T13:10:07.254Z,13.18
2016-11-23T13:11:07.752Z,13.19